Flight Track Log - Related Links

Times and Time Zones

All times are in EDT time to prevent confusion due to time zone crossing. See the RPA3436 flight status page for this flight to view local times or setup timezone preferences in your user account.

Time Position Orientation Groundspeed Altitude Reporting Facility
EDT Latitude Longitude Course Direction KTS MPH feet Rate Location/Type
Wed 10:16:27 AM 38.9164 -77.1044 57° Northeast 179 206 2,800  Level Washington Center
Wed 10:17:27 AM 38.9678 -77.1589 321° Northwest 211 243 5,900 2,876 Climbing Washington Center
Wed 10:18:00 AM 39.0099 -76.5802 57° Northeast  Level FlightAware Approximate
Wed 10:18:28 AM 39.0364 -77.1844 344° North 243 280 8,600  Level Washington Center
Wed 10:19:00 AM 39.0536 -76.4659 63° Northeast  Level FlightAware Approximate
Wed 10:19:26 AM 39.0625 -77.0833 72° East 185 213 11,400  Level Washington Center
Wed 10:20:00 AM 39.1008 -76.3536 61° Northeast  Level FlightAware Approximate
Wed 10:20:27 AM 39.0744 -76.9714 82° East 234 269 14,000  Level Washington Center
Wed 10:21:00 AM 39.1316 -76.2368 57° Northeast  Level FlightAware Approximate
Wed 10:21:27 AM 39.0861 -76.8431 83° East 298 343 15,600  Level Washington Center
Wed 10:22:28 AM 39.1019 -76.7097 81° East 343 395 18,000 2,016 Climbing Washington Center
Wed 10:23:29 AM 39.1158 -76.5733 82° East 372 428 19,700 1,785 Climbing Washington Center
Wed 10:24:29 AM 39.1292 -76.4317 83° East 385 443 21,600 1,678 Climbing Washington Center
Wed 10:25:27 AM 39.1428 -76.2875 83° East 397 457 23,000 706 Climbing Washington Center
Wed 10:26:28 AM 39.1622 -76.1378 80° East 408 470 23,000  Level Washington Center
Wed 10:27:28 AM 39.1817 -75.9958 80° East 408 470 23,000 50 Level Washington Center
Wed 10:28:29 AM 39.2131 -75.8514 74° East 408 470 23,100 744 Climbing Washington Center
Wed 10:29:29 AM 39.2989 -75.7417 45° Northeast 412 474 24,500 1,424 Climbing Washington Center
Wed 10:30:27 AM 39.3844 -75.6292 45° Northeast 418 481 25,900 1,261 Climbing Washington Center
Wed 10:31:28 AM 39.4739 -75.5136 45° Northeast 430 495 27,000 391 Climbing Washington Center
Wed 10:33:16 AM 39.6342 -75.3103 44° Northeast 445 512 27,000  Level New York Center
Wed 10:34:17 AM 39.7181 -75.1917 47° Northeast 440 506 27,000  Level New York Center
Wed 10:35:18 AM 39.8017 -75.0697 48° Northeast 445 512 27,000  Level New York Center
Wed 10:36:16 AM 39.8853 -74.9506 48° Northeast 445 512 27,000  Level New York Center
Wed 10:37:17 AM 39.9775 -74.8153 48° Northeast 450 518 27,000  Level New York Center
Wed 10:38:17 AM 40.0519 -74.7111 47° Northeast 450 518 27,000  Level New York Center
Wed 10:39:16 AM 40.1461 -74.5753 48° Northeast 450 518 27,000  Level New York Center
Wed 10:40:15 AM 40.2350 -74.4606 45° Northeast 450 518 27,000  Level New York Center
Wed 10:41:15 AM 40.3300 -74.3567 40° Northeast 450 518 27,000  Level New York Center
Wed 10:43:32 AM 40.5392 -74.1331 39° Northeast 443 510 27,000  Level Boston Center
Wed 10:44:32 AM 40.6367 -74.0292 39° Northeast 443 510 27,000 -1,000 Level Boston Center
Wed 10:45:32 AM 40.7317 -73.9244 40° Northeast 443 510 25,000 -1,500 Descending Boston Center
Wed 10:46:32 AM 40.8311 -73.8144 40° Northeast 426 490 24,000 -750 Descending Boston Center
Wed 10:47:32 AM 40.9156 -73.7308 37° Northeast 420 483 23,500 -500 Descending Boston Center
Wed 10:48:32 AM 41.0289 -73.6481 29° Northeast 420 483 23,000 -300 Descending Boston Center
Wed 10:49:32 AM 41.1233 -73.5781 29° Northeast 420 483 22,900 -600 Descending Boston Center
Wed 10:50:32 AM 41.2325 -73.4972 29° Northeast 420 483 21,800 -1,364 Descending Boston Center
Wed 10:51:44 AM 41.3639 -73.4856 North 388 447 19,900 -1,500 Descending Boston Center
Wed 10:52:44 AM 41.4703 -73.4872 359° North 383 441 18,500 -1,350 Descending Boston Center
Wed 10:53:44 AM 41.5722 -73.4944 357° North 377 434 17,200 -1,350 Descending Boston Center
Wed 10:54:44 AM 41.6597 -73.5014 357° North 358 412 15,800 -1,450 Descending Boston Center
Wed 10:55:44 AM 41.7619 -73.5061 358° North 345 397 14,300 -1,350 Descending Boston Center
Wed 10:56:44 AM 41.8472 -73.5131 357° North 340 391 13,100 -1,250 Descending Boston Center
Wed 10:57:44 AM 41.9492 -73.5175 358° North 335 386 11,800 -1,081 Descending Boston Center
Wed 10:58:35 AM 42.0264 -73.5217 358° North 331 381 11,100 -400 Descending Boston Center
Wed 10:59:44 AM 42.1222 -73.5261 358° North 330 380 11,000 -93 Descending Boston Center
Wed 11:00:44 AM 42.2117 -73.5361 355° North 325 374 10,900 -733 Descending Boston Center
Wed 11:01:55 AM 42.3156 -73.5631 349° North 299 344 9,400 -1,511 Descending Boston Center
Wed 11:02:55 AM 42.4031 -73.5872 348° North 294 338 7,600 -1,736 Descending Boston Center
Wed 11:03:56 AM 42.4797 -73.6083 349° North 288 331 5,900 -1,574 Descending Boston Center
Wed 11:04:57 AM 42.5547 -73.6294 348° North 276 318 4,400 -1,240 Descending Boston Center
Wed 11:05:57 AM 42.6253 -73.6619 341° North 267 307 3,400 -1,000 Descending Boston Center

Login

Don't have an account? Register now (free) for customized features, flight alerts, and more!